sensor_id;sensor_type;location;lat;lon;timestamp;P1;durP1;ratioP1;P2;durP2;ratioP2
2546;SDS011;1283;47.982;7.834;2024-02-26T00:02:11;0.60;;;0.47;;
2546;SDS011;1283;47.982;7.834;2024-02-26T00:04:37;0.73;;;0.47;;
2546;SDS011;1283;47.982;7.834;2024-02-26T00:07:03;1.25;;;0.50;;
2546;SDS011;1283;47.982;7.834;2024-02-26T00:09:30;0.40;;;0.40;;
2546;SDS011;1283;47.982;7.834;2024-02-26T00:11:56;0.70;;;0.38;;
2546;SDS011;1283;47.982;7.834;2024-02-26T00:14:25;1.00;;;0.57;;
2546;SDS011;1283;47.982;7.834;2024-02-26T00:16:52;0.40;;;0.30;;
2546;SDS011;1283;47.982;7.834;2024-02-26T00:19:18;0.85;;;0.50;;
2546;SDS011;1283;47.982;7.834;2024-02-26T00:21:44;1.20;;;0.40;;
2546;SDS011;1283;47.982;7.834;2024-02-26T00:24:11;1.80;;;0.50;;
2546;SDS011;1283;47.982;7.834;2024-02-26T00:26:37;0.40;;;0.40;;
2546;SDS011;1283;47.982;7.834;2024-02-26T00:29:04;0.52;;;0.30;;
2546;SDS011;1283;47.982;7.834;2024-02-26T00:31:31;0.40;;;0.20;;
2546;SDS011;1283;47.982;7.834;2024-02-26T00:33:58;0.20;;;0.20;;
2546;SDS011;1283;47.982;7.834;2024-02-26T00:36:24;0.35;;;0.25;;
2546;SDS011;1283;47.982;7.834;2024-02-26T00:38:51;0.63;;;0.25;;
2546;SDS011;1283;47.982;7.834;2024-02-26T00:41:17;0.52;;;0.35;;
2546;SDS011;1283;47.982;7.834;2024-02-26T00:43:44;0.60;;;0.40;;
2546;SDS011;1283;47.982;7.834;2024-02-26T00:46:10;0.28;;;0.20;;
2546;SDS011;1283;47.982;7.834;2024-02-26T00:48:38;1.48;;;0.30;;
2546;SDS011;1283;47.982;7.834;2024-02-26T00:51:05;1.10;;;0.40;;
2546;SDS011;1283;47.982;7.834;2024-02-26T00:53:32;0.43;;;0.30;;
2546;SDS011;1283;47.982;7.834;2024-02-26T00:55:59;0.50;;;0.50;;
2546;SDS011;1283;47.982;7.834;2024-02-26T00:58:25;0.47;;;0.30;;
2546;SDS011;1283;47.982;7.834;2024-02-26T01:00:52;0.55;;;0.45;;
2546;SDS011;1283;47.982;7.834;2024-02-26T01:03:18;2.42;;;0.30;;
2546;SDS011;1283;47.982;7.834;2024-02-26T01:05:46;0.65;;;0.38;;
2546;SDS011;1283;47.982;7.834;2024-02-26T01:08:13;0.77;;;0.40;;
2546;SDS011;1283;47.982;7.834;2024-02-26T01:10:39;0.47;;;0.40;;
2546;SDS011;1283;47.982;7.834;2024-02-26T01:13:06;1.15;;;0.52;;
2546;SDS011;1283;47.982;7.834;2024-02-26T01:15:33;0.30;;;0.30;;
2546;SDS011;1283;47.982;7.834;2024-02-26T01:17:59;3.72;;;0.75;;
2546;SDS011;1283;47.982;7.834;2024-02-26T01:20:26;1.50;;;0.60;;
2546;SDS011;1283;47.982;7.834;2024-02-26T01:22:54;0.95;;;0.50;;
2546;SDS011;1283;47.982;7.834;2024-02-26T01:25:20;0.82;;;0.60;;
2546;SDS011;1283;47.982;7.834;2024-02-26T01:27:47;0.63;;;0.43;;
2546;SDS011;1283;47.982;7.834;2024-02-26T01:30:13;2.40;;;0.40;;
2546;SDS011;1283;47.982;7.834;2024-02-26T01:32:41;0.40;;;0.30;;
2546;SDS011;1283;47.982;7.834;2024-02-26T01:35:07;0.43;;;0.40;;
2546;SDS011;1283;47.982;7.834;2024-02-26T01:37:36;0.35;;;0.30;;
2546;SDS011;1283;47.982;7.834;2024-02-26T01:40:05;0.38;;;0.38;;
2546;SDS011;1283;47.982;7.834;2024-02-26T01:42:32;2.92;;;0.38;;
2546;SDS011;1283;47.982;7.834;2024-02-26T01:44:59;0.55;;;0.40;;
2546;SDS011;1283;47.982;7.834;2024-02-26T01:47:25;0.35;;;0.32;;
2546;SDS011;1283;47.982;7.834;2024-02-26T01:49:52;0.73;;;0.40;;
2546;SDS011;1283;47.982;7.834;2024-02-26T01:52:19;0.75;;;0.30;;
2546;SDS011;1283;47.982;7.834;2024-02-26T01:54:46;0.40;;;0.30;;
2546;SDS011;1283;47.982;7.834;2024-02-26T01:57:14;0.50;;;0.40;;
2546;SDS011;1283;47.982;7.834;2024-02-26T01:59:41;1.02;;;0.60;;
2546;SDS011;1283;47.982;7.834;2024-02-26T02:02:08;0.68;;;0.50;;
2546;SDS011;1283;47.982;7.834;2024-02-26T02:04:36;1.50;;;0.30;;
2546;SDS011;1283;47.982;7.834;2024-02-26T02:07:03;0.60;;;0.47;;
2546;SDS011;1283;47.982;7.834;2024-02-26T02:09:30;6.18;;;0.60;;
2546;SDS011;1283;47.982;7.834;2024-02-26T02:11:57;0.77;;;0.30;;
2546;SDS011;1283;47.982;7.834;2024-02-26T02:14:25;0.90;;;0.35;;
2546;SDS011;1283;47.982;7.834;2024-02-26T02:16:52;2.08;;;0.40;;
2546;SDS011;1283;47.982;7.834;2024-02-26T02:19:18;0.88;;;0.40;;
2546;SDS011;1283;47.982;7.834;2024-02-26T02:21:46;0.82;;;0.30;;
2546;SDS011;1283;47.982;7.834;2024-02-26T02:24:12;0.65;;;0.40;;
2546;SDS011;1283;47.982;7.834;2024-02-26T02:26:39;0.50;;;0.40;;
2546;SDS011;1283;47.982;7.834;2024-02-26T02:29:05;0.90;;;0.50;;
2546;SDS011;1283;47.982;7.834;2024-02-26T02:31:32;1.67;;;0.40;;
2546;SDS011;1283;47.982;7.834;2024-02-26T02:33:59;0.30;;;0.30;;
2546;SDS011;1283;47.982;7.834;2024-02-26T02:36:25;0.38;;;0.30;;
2546;SDS011;1283;47.982;7.834;2024-02-26T02:38:53;1.95;;;0.40;;
2546;SDS011;1283;47.982;7.834;2024-02-26T02:41:19;0.30;;;0.30;;
2546;SDS011;1283;47.982;7.834;2024-02-26T02:43:46;0.52;;;0.40;;
2546;SDS011;1283;47.982;7.834;2024-02-26T02:46:13;0.70;;;0.50;;
2546;SDS011;1283;47.982;7.834;2024-02-26T02:48:41;2.17;;;0.30;;
2546;SDS011;1283;47.982;7.834;2024-02-26T02:51:07;0.30;;;0.30;;
2546;SDS011;1283;47.982;7.834;2024-02-26T02:53:34;0.30;;;0.30;;
2546;SDS011;1283;47.982;7.834;2024-02-26T02:56:01;0.60;;;0.50;;
2546;SDS011;1283;47.982;7.834;2024-02-26T02:58:28;0.60;;;0.40;;
2546;SDS011;1283;47.982;7.834;2024-02-26T03:00:54;1.17;;;0.50;;
2546;SDS011;1283;47.982;7.834;2024-02-26T03:03:21;1.95;;;0.50;;
2546;SDS011;1283;47.982;7.834;2024-02-26T03:05:49;0.90;;;0.40;;
2546;SDS011;1283;47.982;7.834;2024-02-26T03:08:15;4.05;;;0.60;;
2546;SDS011;1283;47.982;7.834;2024-02-26T03:10:42;0.85;;;0.43;;
2546;SDS011;1283;47.982;7.834;2024-02-26T03:13:10;1.08;;;0.50;;
2546;SDS011;1283;47.982;7.834;2024-02-26T03:15:36;2.03;;;0.73;;
2546;SDS011;1283;47.982;7.834;2024-02-26T03:18:03;0.98;;;0.43;;
2546;SDS011;1283;47.982;7.834;2024-02-26T03:20:29;0.85;;;0.50;;
2546;SDS011;1283;47.982;7.834;2024-02-26T03:22:56;1.98;;;0.47;;
2546;SDS011;1283;47.982;7.834;2024-02-26T03:25:22;0.70;;;0.50;;
2546;SDS011;1283;47.982;7.834;2024-02-26T03:27:48;2.67;;;0.43;;
2546;SDS011;1283;47.982;7.834;2024-02-26T03:30:16;0.75;;;0.50;;
2546;SDS011;1283;47.982;7.834;2024-02-26T03:32:43;1.55;;;0.80;;
2546;SDS011;1283;47.982;7.834;2024-02-26T03:35:09;2.78;;;0.80;;
2546;SDS011;1283;47.982;7.834;2024-02-26T03:37:36;1.23;;;0.60;;
2546;SDS011;1283;47.982;7.834;2024-02-26T03:40:02;4.15;;;0.90;;
2546;SDS011;1283;47.982;7.834;2024-02-26T03:42:29;3.42;;;0.65;;
2546;SDS011;1283;47.982;7.834;2024-02-26T03:44:56;1.27;;;0.60;;
2546;SDS011;1283;47.982;7.834;2024-02-26T03:47:24;1.25;;;0.65;;
2546;SDS011;1283;47.982;7.834;2024-02-26T03:49:50;1.50;;;0.68;;
2546;SDS011;1283;47.982;7.834;2024-02-26T03:52:16;1.10;;;0.60;;
2546;SDS011;1283;47.982;7.834;2024-02-26T03:54:43;0.98;;;0.50;;
2546;SDS011;1283;47.982;7.834;2024-02-26T03:57:09;0.57;;;0.50;;
2546;SDS011;1283;47.982;7.834;2024-02-26T03:59:36;0.45;;;0.40;;
2546;SDS011;1283;47.982;7.834;2024-02-26T04:02:02;1.05;;;0.55;;
2546;SDS011;1283;47.982;7.834;2024-02-26T04:04:33;0.70;;;0.50;;
2546;SDS011;1283;47.982;7.834;2024-02-26T04:07:00;0.93;;;0.47;;
2546;SDS011;1283;47.982;7.834;2024-02-26T04:09:26;1.58;;;0.65;;
2546;SDS011;1283;47.982;7.834;2024-02-26T04:11:53;2.35;;;0.82;;
2546;SDS011;1283;47.982;7.834;2024-02-26T04:14:19;1.23;;;0.63;;
2546;SDS011;1283;47.982;7.834;2024-02-26T04:16:45;0.40;;;0.40;;
2546;SDS011;1283;47.982;7.834;2024-02-26T04:19:16;0.40;;;0.40;;
2546;SDS011;1283;47.982;7.834;2024-02-26T04:21:44;0.43;;;0.43;;
2546;SDS011;1283;47.982;7.834;2024-02-26T04:24:10;0.82;;;0.60;;
2546;SDS011;1283;47.982;7.834;2024-02-26T04:26:37;1.02;;;0.60;;
2546;SDS011;1283;47.982;7.834;2024-02-26T04:29:04;1.77;;;0.70;;
2546;SDS011;1283;47.982;7.834;2024-02-26T04:31:30;0.45;;;0.40;;
2546;SDS011;1283;47.982;7.834;2024-02-26T04:33:58;1.52;;;0.68;;
2546;SDS011;1283;47.982;7.834;2024-02-26T04:36:24;1.08;;;0.60;;
2546;SDS011;1283;47.982;7.834;2024-02-26T04:38:52;0.60;;;0.55;;
2546;SDS011;1283;47.982;7.834;2024-02-26T04:41:19;3.45;;;0.70;;
2546;SDS011;1283;47.982;7.834;2024-02-26T04:43:46;0.75;;;0.40;;
2546;SDS011;1283;47.982;7.834;2024-02-26T04:46:12;0.40;;;0.40;;
2546;SDS011;1283;47.982;7.834;2024-02-26T04:48:39;1.42;;;0.50;;
2546;SDS011;1283;47.982;7.834;2024-02-26T04:51:06;1.02;;;0.50;;
2546;SDS011;1283;47.982;7.834;2024-02-26T04:53:33;2.58;;;0.45;;
2546;SDS011;1283;47.982;7.834;2024-02-26T04:56:00;1.30;;;0.70;;
2546;SDS011;1283;47.982;7.834;2024-02-26T04:58:27;3.55;;;0.77;;
2546;SDS011;1283;47.982;7.834;2024-02-26T05:00:53;0.93;;;0.50;;
2546;SDS011;1283;47.982;7.834;2024-02-26T05:03:20;1.60;;;0.60;;
2546;SDS011;1283;47.982;7.834;2024-02-26T05:05:47;0.75;;;0.50;;
2546;SDS011;1283;47.982;7.834;2024-02-26T05:08:13;0.50;;;0.50;;
2546;SDS011;1283;47.982;7.834;2024-02-26T05:10:40;2.55;;;0.70;;
2546;SDS011;1283;47.982;7.834;2024-02-26T05:13:09;0.93;;;0.60;;
2546;SDS011;1283;47.982;7.834;2024-02-26T05:15:35;2.15;;;0.70;;
2546;SDS011;1283;47.982;7.834;2024-02-26T05:18:02;1.10;;;0.50;;
2546;SDS011;1283;47.982;7.834;2024-02-26T05:20:29;0.90;;;0.70;;
2546;SDS011;1283;47.982;7.834;2024-02-26T05:22:56;0.68;;;0.55;;
2546;SDS011;1283;47.982;7.834;2024-02-26T05:25:23;2.70;;;0.60;;
2546;SDS011;1283;47.982;7.834;2024-02-26T05:27:50;0.98;;;0.63;;
2546;SDS011;1283;47.982;7.834;2024-02-26T05:30:18;0.60;;;0.50;;
2546;SDS011;1283;47.982;7.834;2024-02-26T05:32:44;1.00;;;0.50;;
2546;SDS011;1283;47.982;7.834;2024-02-26T05:35:11;0.73;;;0.60;;
2546;SDS011;1283;47.982;7.834;2024-02-26T05:37:37;0.60;;;0.40;;
2546;SDS011;1283;47.982;7.834;2024-02-26T05:40:04;4.72;;;0.95;;
2546;SDS011;1283;47.982;7.834;2024-02-26T05:42:32;1.67;;;0.70;;
2546;SDS011;1283;47.982;7.834;2024-02-26T05:44:58;1.48;;;0.60;;
2546;SDS011;1283;47.982;7.834;2024-02-26T05:47:31;0.60;;;0.40;;
2546;SDS011;1283;47.982;7.834;2024-02-26T05:49:58;0.93;;;0.50;;
2546;SDS011;1283;47.982;7.834;2024-02-26T05:52:25;0.82;;;0.60;;
2546;SDS011;1283;47.982;7.834;2024-02-26T05:54:52;0.47;;;0.40;;
2546;SDS011;1283;47.982;7.834;2024-02-26T05:57:18;1.00;;;0.50;;
2546;SDS011;1283;47.982;7.834;2024-02-26T05:59:45;0.30;;;0.30;;
2546;SDS011;1283;47.982;7.834;2024-02-26T06:02:11;0.57;;;0.30;;
2546;SDS011;1283;47.982;7.834;2024-02-26T06:04:39;2.38;;;0.50;;
2546;SDS011;1283;47.982;7.834;2024-02-26T06:07:05;1.10;;;0.60;;
2546;SDS011;1283;47.982;7.834;2024-02-26T06:09:32;1.90;;;0.52;;
2546;SDS011;1283;47.982;7.834;2024-02-26T06:11:58;0.40;;;0.40;;
2546;SDS011;1283;47.982;7.834;2024-02-26T06:14:24;0.63;;;0.60;;
2546;SDS011;1283;47.982;7.834;2024-02-26T06:16:51;1.63;;;0.70;;
2546;SDS011;1283;47.982;7.834;2024-02-26T06:19:17;0.75;;;0.40;;
2546;SDS011;1283;47.982;7.834;2024-02-26T06:21:45;1.05;;;0.70;;
2546;SDS011;1283;47.982;7.834;2024-02-26T06:24:11;0.80;;;0.52;;
2546;SDS011;1283;47.982;7.834;2024-02-26T06:26:38;0.50;;;0.38;;
2546;SDS011;1283;47.982;7.834;2024-02-26T06:29:04;0.98;;;0.50;;
2546;SDS011;1283;47.982;7.834;2024-02-26T06:31:31;1.02;;;0.47;;
2546;SDS011;1283;47.982;7.834;2024-02-26T06:33:57;0.30;;;0.30;;
2546;SDS011;1283;47.982;7.834;2024-02-26T06:36:23;0.43;;;0.40;;
2546;SDS011;1283;47.982;7.834;2024-02-26T06:38:52;0.98;;;0.50;;
2546;SDS011;1283;47.982;7.834;2024-02-26T06:41:19;1.67;;;0.68;;
2546;SDS011;1283;47.982;7.834;2024-02-26T06:43:46;0.60;;;0.50;;
2546;SDS011;1283;47.982;7.834;2024-02-26T06:46:12;0.65;;;0.40;;
2546;SDS011;1283;47.982;7.834;2024-02-26T06:48:39;2.17;;;0.65;;
2546;SDS011;1283;47.982;7.834;2024-02-26T06:51:05;0.95;;;0.40;;
2546;SDS011;1283;47.982;7.834;2024-02-26T06:53:32;0.65;;;0.52;;
2546;SDS011;1283;47.982;7.834;2024-02-26T06:56:00;0.32;;;0.30;;
2546;SDS011;1283;47.982;7.834;2024-02-26T06:58:26;1.83;;;0.70;;
2546;SDS011;1283;47.982;7.834;2024-02-26T07:00:52;0.60;;;0.40;;
2546;SDS011;1283;47.982;7.834;2024-02-26T07:03:19;0.40;;;0.30;;
2546;SDS011;1283;47.982;7.834;2024-02-26T07:05:47;0.38;;;0.30;;
2546;SDS011;1283;47.982;7.834;2024-02-26T07:08:14;0.52;;;0.32;;
2546;SDS011;1283;47.982;7.834;2024-02-26T07:10:40;1.00;;;0.40;;
2546;SDS011;1283;47.982;7.834;2024-02-26T07:13:08;0.43;;;0.40;;
2546;SDS011;1283;47.982;7.834;2024-02-26T07:15:34;0.90;;;0.30;;
2546;SDS011;1283;47.982;7.834;2024-02-26T07:18:01;1.00;;;0.43;;
2546;SDS011;1283;47.982;7.834;2024-02-26T07:20:28;0.77;;;0.50;;
2546;SDS011;1283;47.982;7.834;2024-02-26T07:22:55;1.05;;;0.73;;
2546;SDS011;1283;47.982;7.834;2024-02-26T07:25:21;1.58;;;0.57;;
2546;SDS011;1283;47.982;7.834;2024-02-26T07:27:49;1.23;;;0.47;;
2546;SDS011;1283;47.982;7.834;2024-02-26T07:30:17;1.05;;;0.60;;
2546;SDS011;1283;47.982;7.834;2024-02-26T07:32:43;1.88;;;0.57;;
2546;SDS011;1283;47.982;7.834;2024-02-26T07:35:10;0.68;;;0.45;;
2546;SDS011;1283;47.982;7.834;2024-02-26T07:37:36;1.20;;;0.55;;
2546;SDS011;1283;47.982;7.834;2024-02-26T07:40:04;4.25;;;0.68;;
2546;SDS011;1283;47.982;7.834;2024-02-26T07:42:33;0.70;;;0.50;;
2546;SDS011;1283;47.982;7.834;2024-02-26T07:44:59;0.90;;;0.40;;
2546;SDS011;1283;47.982;7.834;2024-02-26T07:47:27;0.50;;;0.30;;
2546;SDS011;1283;47.982;7.834;2024-02-26T07:49:54;1.10;;;0.60;;
2546;SDS011;1283;47.982;7.834;2024-02-26T07:52:21;1.83;;;0.70;;
2546;SDS011;1283;47.982;7.834;2024-02-26T07:54:47;0.40;;;0.40;;
2546;SDS011;1283;47.982;7.834;2024-02-26T07:57:14;0.82;;;0.35;;
2546;SDS011;1283;47.982;7.834;2024-02-26T07:59:42;1.48;;;0.40;;
2546;SDS011;1283;47.982;7.834;2024-02-26T08:02:09;0.65;;;0.40;;
2546;SDS011;1283;47.982;7.834;2024-02-26T08:04:37;2.65;;;0.90;;
2546;SDS011;1283;47.982;7.834;2024-02-26T08:07:04;0.60;;;0.50;;
2546;SDS011;1283;47.982;7.834;2024-02-26T08:09:30;1.10;;;0.60;;
2546;SDS011;1283;47.982;7.834;2024-02-26T08:11:56;1.35;;;0.60;;
2546;SDS011;1283;47.982;7.834;2024-02-26T08:14:23;1.77;;;0.70;;
2546;SDS011;1283;47.982;7.834;2024-02-26T08:16:49;2.47;;;0.70;;
2546;SDS011;1283;47.982;7.834;2024-02-26T08:19:16;0.52;;;0.40;;
2546;SDS011;1283;47.982;7.834;2024-02-26T08:21:44;0.45;;;0.40;;
2546;SDS011;1283;47.982;7.834;2024-02-26T08:24:10;0.93;;;0.50;;
2546;SDS011;1283;47.982;7.834;2024-02-26T08:26:37;0.43;;;0.25;;
2546;SDS011;1283;47.982;7.834;2024-02-26T08:29:03;2.92;;;0.50;;
2546;SDS011;1283;47.982;7.834;2024-02-26T08:31:30;2.30;;;0.60;;
2546;SDS011;1283;47.982;7.834;2024-02-26T08:33:56;2.05;;;0.93;;
2546;SDS011;1283;47.982;7.834;2024-02-26T08:36:23;0.60;;;0.50;;
2546;SDS011;1283;47.982;7.834;2024-02-26T08:38:51;2.55;;;0.60;;
2546;SDS011;1283;47.982;7.834;2024-02-26T08:41:17;0.30;;;0.30;;
2546;SDS011;1283;47.982;7.834;2024-02-26T08:43:44;0.65;;;0.40;;
2546;SDS011;1283;47.982;7.834;2024-02-26T08:46:10;2.10;;;0.80;;
2546;SDS011;1283;47.982;7.834;2024-02-26T08:48:38;4.97;;;1.00;;
2546;SDS011;1283;47.982;7.834;2024-02-26T08:51:05;0.60;;;0.40;;
2546;SDS011;1283;47.982;7.834;2024-02-26T08:53:32;1.45;;;0.60;;
2546;SDS011;1283;47.982;7.834;2024-02-26T08:56:00;0.55;;;0.40;;
2546;SDS011;1283;47.982;7.834;2024-02-26T08:58:27;0.70;;;0.38;;
2546;SDS011;1283;47.982;7.834;2024-02-26T09:00:53;1.25;;;0.45;;
2546;SDS011;1283;47.982;7.834;2024-02-26T09:03:20;0.75;;;0.50;;
2546;SDS011;1283;47.982;7.834;2024-02-26T09:05:46;2.95;;;0.77;;
2546;SDS011;1283;47.982;7.834;2024-02-26T09:08:12;6.47;;;1.35;;
2546;SDS011;1283;47.982;7.834;2024-02-26T09:10:39;3.13;;;1.50;;
2546;SDS011;1283;47.982;7.834;2024-02-26T09:13:07;2.92;;;1.75;;
2546;SDS011;1283;47.982;7.834;2024-02-26T09:15:33;2.80;;;1.75;;
2546;SDS011;1283;47.982;7.834;2024-02-26T09:18:00;3.30;;;1.55;;
2546;SDS011;1283;47.982;7.834;2024-02-26T09:20:26;2.65;;;1.60;;
2546;SDS011;1283;47.982;7.834;2024-02-26T09:22:53;2.28;;;1.45;;
2546;SDS011;1283;47.982;7.834;2024-02-26T09:25:19;2.88;;;1.73;;
2546;SDS011;1283;47.982;7.834;2024-02-26T09:27:46;3.97;;;1.63;;
2546;SDS011;1283;47.982;7.834;2024-02-26T09:30:14;2.38;;;1.42;;
2546;SDS011;1283;47.982;7.834;2024-02-26T09:32:40;3.40;;;1.70;;
2546;SDS011;1283;47.982;7.834;2024-02-26T09:35:07;3.22;;;1.48;;
2546;SDS011;1283;47.982;7.834;2024-02-26T09:37:33;6.70;;;1.58;;
2546;SDS011;1283;47.982;7.834;2024-02-26T09:40:01;4.80;;;1.30;;
2546;SDS011;1283;47.982;7.834;2024-02-26T09:42:28;2.72;;;1.45;;
2546;SDS011;1283;47.982;7.834;2024-02-26T09:44:57;3.88;;;1.40;;
2546;SDS011;1283;47.982;7.834;2024-02-26T09:47:28;2.60;;;1.45;;
2546;SDS011;1283;47.982;7.834;2024-02-26T09:49:54;3.85;;;2.03;;
2546;SDS011;1283;47.982;7.834;2024-02-26T09:52:23;4.93;;;2.03;;
2546;SDS011;1283;47.982;7.834;2024-02-26T09:54:49;3.60;;;2.08;;
2546;SDS011;1283;47.982;7.834;2024-02-26T09:57:16;8.18;;;2.33;;
2546;SDS011;1283;47.982;7.834;2024-02-26T09:59:43;6.82;;;2.25;;
2546;SDS011;1283;47.982;7.834;2024-02-26T10:02:11;5.50;;;2.75;;
2546;SDS011;1283;47.982;7.834;2024-02-26T10:04:40;4.88;;;2.00;;
2546;SDS011;1283;47.982;7.834;2024-02-26T10:07:09;5.78;;;2.42;;
2546;SDS011;1283;47.982;7.834;2024-02-26T10:09:36;4.18;;;2.40;;
2546;SDS011;1283;47.982;7.834;2024-02-26T10:12:03;3.35;;;2.22;;
2546;SDS011;1283;47.982;7.834;2024-02-26T10:14:31;4.47;;;2.00;;
2546;SDS011;1283;47.982;7.834;2024-02-26T10:16:57;5.22;;;2.10;;
2546;SDS011;1283;47.982;7.834;2024-02-26T10:19:26;2.53;;;1.92;;
2546;SDS011;1283;47.982;7.834;2024-02-26T10:21:55;6.32;;;1.75;;
2546;SDS011;1283;47.982;7.834;2024-02-26T10:24:22;3.85;;;2.08;;
2546;SDS011;1283;47.982;7.834;2024-02-26T10:26:49;3.22;;;2.30;;
2546;SDS011;1283;47.982;7.834;2024-02-26T10:29:15;2.50;;;1.70;;
2546;SDS011;1283;47.982;7.834;2024-02-26T10:31:42;6.65;;;1.98;;
2546;SDS011;1283;47.982;7.834;2024-02-26T10:34:08;4.05;;;1.95;;
2546;SDS011;1283;47.982;7.834;2024-02-26T10:36:35;8.75;;;2.10;;
2546;SDS011;1283;47.982;7.834;2024-02-26T10:39:02;4.78;;;2.20;;
2546;SDS011;1283;47.982;7.834;2024-02-26T10:41:29;2.92;;;1.98;;
2546;SDS011;1283;47.982;7.834;2024-02-26T10:43:56;3.33;;;1.95;;
2546;SDS011;1283;47.982;7.834;2024-02-26T10:46:23;4.68;;;2.05;;
2546;SDS011;1283;47.982;7.834;2024-02-26T10:48:50;5.45;;;2.13;;
2546;SDS011;1283;47.982;7.834;2024-02-26T10:51:17;8.30;;;2.13;;
2546;SDS011;1283;47.982;7.834;2024-02-26T10:53:45;4.00;;;2.30;;
2546;SDS011;1283;47.982;7.834;2024-02-26T10:56:13;4.63;;;1.92;;
2546;SDS011;1283;47.982;7.834;2024-02-26T10:58:41;4.88;;;2.42;;
2546;SDS011;1283;47.982;7.834;2024-02-26T11:01:08;12.60;;;2.58;;
2546;SDS011;1283;47.982;7.834;2024-02-26T11:03:35;3.08;;;1.83;;
2546;SDS011;1283;47.982;7.834;2024-02-26T11:06:04;4.50;;;1.35;;
2546;SDS011;1283;47.982;7.834;2024-02-26T11:08:31;4.97;;;1.45;;
2546;SDS011;1283;47.982;7.834;2024-02-26T11:10:58;5.55;;;1.42;;
2546;SDS011;1283;47.982;7.834;2024-02-26T11:13:27;3.17;;;1.30;;
2546;SDS011;1283;47.982;7.834;2024-02-26T11:15:55;6.78;;;1.30;;
2546;SDS011;1283;47.982;7.834;2024-02-26T11:18:23;3.30;;;1.48;;
2546;SDS011;1283;47.982;7.834;2024-02-26T11:20:49;4.50;;;1.65;;
2546;SDS011;1283;47.982;7.834;2024-02-26T11:23:16;4.70;;;1.27;;
2546;SDS011;1283;47.982;7.834;2024-02-26T11:25:43;2.50;;;1.45;;
2546;SDS011;1283;47.982;7.834;2024-02-26T11:28:10;1.95;;;1.42;;
2546;SDS011;1283;47.982;7.834;2024-02-26T11:30:42;2.13;;;1.35;;
2546;SDS011;1283;47.982;7.834;2024-02-26T11:33:11;1.88;;;1.00;;
2546;SDS011;1283;47.982;7.834;2024-02-26T11:35:38;3.13;;;0.90;;
2546;SDS011;1283;47.982;7.834;2024-02-26T11:38:04;1.05;;;0.70;;
2546;SDS011;1283;47.982;7.834;2024-02-26T11:40:32;3.83;;;1.50;;
2546;SDS011;1283;47.982;7.834;2024-02-26T11:42:59;3.13;;;0.90;;
2546;SDS011;1283;47.982;7.834;2024-02-26T11:45:48;2.40;;;0.90;;
2546;SDS011;1283;47.982;7.834;2024-02-26T11:48:19;3.95;;;1.02;;
2546;SDS011;1283;47.982;7.834;2024-02-26T11:50:48;4.05;;;2.40;;
2546;SDS011;1283;47.982;7.834;2024-02-26T11:53:25;4.75;;;1.10;;
2546;SDS011;1283;47.982;7.834;2024-02-26T11:58:46;3.78;;;1.52;;
2546;SDS011;1283;47.982;7.834;2024-02-26T12:04:05;4.22;;;1.95;;
2546;SDS011;1283;47.982;7.834;2024-02-26T12:06:39;5.00;;;2.45;;
2546;SDS011;1283;47.982;7.834;2024-02-26T12:09:07;2.20;;;1.30;;
2546;SDS011;1283;47.982;7.834;2024-02-26T12:11:33;3.35;;;1.60;;
2546;SDS011;1283;47.982;7.834;2024-02-26T12:14:03;4.88;;;1.50;;
2546;SDS011;1283;47.982;7.834;2024-02-26T12:16:35;3.33;;;1.70;;
2546;SDS011;1283;47.982;7.834;2024-02-26T12:19:05;3.28;;;1.50;;
2546;SDS011;1283;47.982;7.834;2024-02-26T12:21:33;3.72;;;2.00;;
2546;SDS011;1283;47.982;7.834;2024-02-26T12:24:07;3.60;;;1.60;;
2546;SDS011;1283;47.982;7.834;2024-02-26T12:26:36;3.78;;;1.45;;
2546;SDS011;1283;47.982;7.834;2024-02-26T12:29:02;3.08;;;1.65;;
2546;SDS011;1283;47.982;7.834;2024-02-26T12:31:29;4.05;;;1.45;;
2546;SDS011;1283;47.982;7.834;2024-02-26T12:33:56;3.72;;;1.63;;
2546;SDS011;1283;47.982;7.834;2024-02-26T12:36:24;7.13;;;1.83;;
2546;SDS011;1283;47.982;7.834;2024-02-26T12:38:50;1.92;;;1.40;;
2546;SDS011;1283;47.982;7.834;2024-02-26T12:41:17;2.17;;;1.63;;
2546;SDS011;1283;47.982;7.834;2024-02-26T12:43:44;2.58;;;1.70;;
2546;SDS011;1283;47.982;7.834;2024-02-26T12:46:10;2.70;;;1.60;;
2546;SDS011;1283;47.982;7.834;2024-02-26T12:48:37;3.17;;;2.00;;
2546;SDS011;1283;47.982;7.834;2024-02-26T12:51:04;3.38;;;1.50;;
2546;SDS011;1283;47.982;7.834;2024-02-26T12:53:32;3.05;;;2.08;;
2546;SDS011;1283;47.982;7.834;2024-02-26T12:55:58;2.92;;;1.50;;
2546;SDS011;1283;47.982;7.834;2024-02-26T12:58:25;3.05;;;1.30;;
2546;SDS011;1283;47.982;7.834;2024-02-26T13:00:52;1.90;;;1.33;;
2546;SDS011;1283;47.982;7.834;2024-02-26T13:03:19;2.88;;;1.30;;
2546;SDS011;1283;47.982;7.834;2024-02-26T13:05:46;2.85;;;1.50;;
2546;SDS011;1283;47.982;7.834;2024-02-26T13:08:16;4.82;;;1.25;;
2546;SDS011;1283;47.982;7.834;2024-02-26T13:10:44;1.75;;;1.27;;
2546;SDS011;1283;47.982;7.834;2024-02-26T13:13:11;2.20;;;1.33;;
2546;SDS011;1283;47.982;7.834;2024-02-26T13:15:40;2.92;;;1.10;;
2546;SDS011;1283;47.982;7.834;2024-02-26T13:18:10;2.97;;;1.30;;
2546;SDS011;1283;47.982;7.834;2024-02-26T13:20:37;6.15;;;1.25;;
2546;SDS011;1283;47.982;7.834;2024-02-26T13:23:06;2.10;;;0.93;;
2546;SDS011;1283;47.982;7.834;2024-02-26T13:25:32;3.30;;;1.55;;
2546;SDS011;1283;47.982;7.834;2024-02-26T13:28:08;2.55;;;1.40;;
2546;SDS011;1283;47.982;7.834;2024-02-26T13:30:35;2.42;;;1.20;;
2546;SDS011;1283;47.982;7.834;2024-02-26T13:33:06;1.35;;;0.85;;
2546;SDS011;1283;47.982;7.834;2024-02-26T13:35:34;3.47;;;1.27;;
2546;SDS011;1283;47.982;7.834;2024-02-26T13:38:01;1.63;;;1.23;;
2546;SDS011;1283;47.982;7.834;2024-02-26T13:40:27;2.72;;;1.13;;
2546;SDS011;1283;47.982;7.834;2024-02-26T13:42:54;2.28;;;1.40;;
2546;SDS011;1283;47.982;7.834;2024-02-26T13:45:22;6.35;;;1.40;;
2546;SDS011;1283;47.982;7.834;2024-02-26T13:47:48;2.20;;;1.17;;
2546;SDS011;1283;47.982;7.834;2024-02-26T13:50:15;1.65;;;1.05;;
2546;SDS011;1283;47.982;7.834;2024-02-26T13:52:46;4.28;;;1.60;;
2546;SDS011;1283;47.982;7.834;2024-02-26T13:55:12;3.60;;;1.65;;
2546;SDS011;1283;47.982;7.834;2024-02-26T13:57:39;1.67;;;1.15;;
2546;SDS011;1283;47.982;7.834;2024-02-26T14:00:06;3.15;;;1.25;;
2546;SDS011;1283;47.982;7.834;2024-02-26T14:02:36;1.65;;;1.00;;
2546;SDS011;1283;47.982;7.834;2024-02-26T14:05:03;3.53;;;1.10;;
2546;SDS011;1283;47.982;7.834;2024-02-26T14:07:30;3.65;;;1.55;;
2546;SDS011;1283;47.982;7.834;2024-02-26T14:09:57;2.95;;;1.38;;
2546;SDS011;1283;47.982;7.834;2024-02-26T14:12:23;2.05;;;1.10;;
2546;SDS011;1283;47.982;7.834;2024-02-26T14:14:50;1.90;;;1.27;;
2546;SDS011;1283;47.982;7.834;2024-02-26T14:17:18;2.58;;;1.60;;
2546;SDS011;1283;47.982;7.834;2024-02-26T14:19:46;6.82;;;1.55;;
2546;SDS011;1283;47.982;7.834;2024-02-26T14:22:13;6.88;;;2.08;;
2546;SDS011;1283;47.982;7.834;2024-02-26T14:24:40;2.10;;;1.08;;
2546;SDS011;1283;47.982;7.834;2024-02-26T14:27:07;3.25;;;1.00;;
2546;SDS011;1283;47.982;7.834;2024-02-26T14:29:34;3.70;;;1.92;;
2546;SDS011;1283;47.982;7.834;2024-02-26T14:32:02;3.65;;;1.50;;
2546;SDS011;1283;47.982;7.834;2024-02-26T14:34:29;1.13;;;0.98;;
2546;SDS011;1283;47.982;7.834;2024-02-26T14:36:57;3.70;;;1.38;;
2546;SDS011;1283;47.982;7.834;2024-02-26T14:39:23;2.08;;;1.30;;
2546;SDS011;1283;47.982;7.834;2024-02-26T14:41:50;3.50;;;0.98;;
2546;SDS011;1283;47.982;7.834;2024-02-26T14:44:16;1.38;;;1.08;;
2546;SDS011;1283;47.982;7.834;2024-02-26T14:46:43;2.40;;;1.70;;
2546;SDS011;1283;47.982;7.834;2024-02-26T14:49:09;3.13;;;2.10;;
2546;SDS011;1283;47.982;7.834;2024-02-26T14:51:37;3.63;;;1.40;;
2546;SDS011;1283;47.982;7.834;2024-02-26T14:54:04;2.13;;;1.20;;
2546;SDS011;1283;47.982;7.834;2024-02-26T14:56:31;2.20;;;1.33;;
2546;SDS011;1283;47.982;7.834;2024-02-26T14:58:57;1.85;;;1.05;;
2546;SDS011;1283;47.982;7.834;2024-02-26T15:01:24;2.20;;;1.10;;
2546;SDS011;1283;47.982;7.834;2024-02-26T15:03:50;4.68;;;1.23;;
2546;SDS011;1283;47.982;7.834;2024-02-26T15:06:17;5.65;;;1.45;;
2546;SDS011;1283;47.982;7.834;2024-02-26T15:08:43;5.50;;;1.45;;
2546;SDS011;1283;47.982;7.834;2024-02-26T15:11:11;2.65;;;1.33;;
2546;SDS011;1283;47.982;7.834;2024-02-26T15:13:38;3.20;;;1.30;;
2546;SDS011;1283;47.982;7.834;2024-02-26T15:16:04;5.38;;;1.48;;
2546;SDS011;1283;47.982;7.834;2024-02-26T15:18:31;2.60;;;1.27;;
2546;SDS011;1283;47.982;7.834;2024-02-26T15:20:57;3.47;;;1.40;;